createdAt,value
2018-12-22T00:00:15.911Z,2.6
2018-12-22T00:15:27.010Z,2.2
2018-12-22T00:29:31.738Z,2.3
2018-12-22T00:44:44.888Z,2.2
2018-12-22T00:59:42.073Z,2.4
2018-12-22T01:14:58.926Z,2.2
2018-12-22T01:30:05.377Z,2.4
2018-12-22T01:45:24.599Z,2.4
2018-12-22T02:00:20.794Z,2.3
2018-12-22T02:15:15.195Z,2.2
2018-12-22T02:30:23.565Z,2.1
2018-12-22T02:45:29.302Z,2.4
2018-12-22T03:00:29.481Z,2.1
2018-12-22T03:14:42.621Z,2.1
2018-12-22T03:30:29.802Z,2.3
2018-12-22T03:45:31.967Z,2.2
2018-12-22T04:00:22.813Z,2.3
2018-12-22T04:14:44.839Z,2.3
2018-12-22T04:30:27.335Z,2.2
2018-12-22T04:45:21.437Z,2.1
2018-12-22T05:00:03.683Z,2.2
2018-12-22T05:14:54.690Z,2.1
2018-12-22T05:30:03.823Z,1.9
2018-12-22T05:45:30.703Z,2
2018-12-22T06:00:35.655Z,2.1
2018-12-22T06:15:33.976Z,1.9
2018-12-22T06:30:33.007Z,2
2018-12-22T06:45:50.574Z,2
2018-12-22T07:00:17.598Z,2.2
2018-12-22T07:00:17.894Z,2.2
2018-12-22T07:15:27.083Z,1.2
2018-12-22T07:30:25.880Z,1.2
2018-12-22T07:30:26.318Z,1.2
2018-12-22T07:45:21.591Z,1
2018-12-22T07:59:59.160Z,1.1
2018-12-22T08:15:00.473Z,1
2018-12-22T08:29:55.125Z,0.9
2018-12-22T08:44:57.134Z,1.1
2018-12-22T09:01:01.401Z,1.3
2018-12-22T09:15:00.713Z,1.2
2018-12-22T09:30:39.709Z,1.6
2018-12-22T09:44:52.148Z,1.4
2018-12-22T10:00:46.076Z,1.5
2018-12-22T10:15:48.107Z,1.6
2018-12-22T10:30:41.187Z,1.3
2018-12-22T10:45:38.750Z,1.6
2018-12-22T11:00:40.561Z,1.7
2018-12-22T11:15:42.701Z,1.9
2018-12-22T11:30:31.021Z,1.6
2018-12-22T11:45:44.030Z,1.7
2018-12-22T12:00:21.544Z,1.8
2018-12-22T12:15:21.752Z,1.8
2018-12-22T12:30:30.840Z,1.7
2018-12-22T12:45:29.741Z,1.8
2018-12-22T13:00:38.586Z,1.9
2018-12-22T13:15:54.805Z,1.8
2018-12-22T13:31:00.955Z,2
2018-12-22T13:45:02.471Z,1.7
2018-12-22T14:01:01.187Z,1.6
2018-12-22T14:15:09.127Z,1.7
2018-12-22T14:30:16.154Z,2
2018-12-22T14:45:25.041Z,2
2018-12-22T15:00:15.397Z,1.9
2018-12-22T15:15:11.625Z,2.3
2018-12-22T15:30:37.331Z,1.9
2018-12-22T15:45:33.289Z,1.9
2018-12-22T16:00:28.190Z,1.7
2018-12-22T16:15:39.189Z,2
2018-12-22T16:30:43.206Z,1.7
2018-12-22T16:45:40.350Z,1.6
2018-12-22T17:00:54.487Z,1.7
2018-12-22T17:15:51.520Z,1.6
2018-12-22T17:30:48.795Z,1.8
2018-12-22T17:45:41.031Z,1.8
2018-12-22T18:00:53.271Z,1.6
2018-12-22T18:15:46.805Z,1.7
2018-12-22T18:30:48.120Z,1.6
2018-12-22T18:45:52.716Z,1.7
2018-12-22T19:00:52.917Z,1.5
2018-12-22T19:16:07.325Z,1.6
2018-12-22T19:31:06.998Z,2.1
2018-12-22T19:46:01.184Z,1.9
2018-12-22T20:01:15.270Z,2.2
2018-12-22T20:16:18.718Z,2.1
2018-12-22T20:30:29.827Z,2.2
2018-12-22T20:45:44.733Z,1.7
2018-12-22T20:53:03.858Z,1.7
2018-12-22T21:01:08.492Z,2
2018-12-22T21:16:21.497Z,1.9
2018-12-22T21:30:49.573Z,2
2018-12-22T21:46:05.920Z,1.9
2018-12-22T22:01:09.607Z,1.7
2018-12-22T22:15:36.580Z,2
2018-12-22T22:31:26.663Z,1.7
2018-12-22T22:45:34.616Z,1.7
2018-12-22T23:00:43.322Z,1.7
2018-12-22T23:15:35.491Z,1.8
2018-12-22T23:30:47.298Z,1.8
2018-12-22T23:46:19.735Z,2
